Logo AVAMET
Benvolgut visitant, si us plau, ingressa Recuperar contrasenya
AVAMET paisatges

València Camins al Grau

Dades diàries. Acumulats / Últims 30 dies disponibles

Data Temperatura (°C) Humitat rel. (%) Pressió rel. (hPa) Vent (km/h) Precipitació
Mínima Mitjana Màxima Amplitud
tèrmica
Mínima Mitjana Màxima Mínima Mitjana Màxima Predom. Mitjana Ràfega
màxima
Total
(mm)
Índex-n
Mínima Mitjana Màxima Mínima Mitjana Màxima n
0 a 1
P0 max
mm 5'
Dades mensuals acumulades fins l'últim dia disponible
10/2020 13,5 15,4 18,0 21,8 23,9 26,3 32,3 18,8 20 41 72 990 1.009 1.020   9,2 51,0 1,2
Dades anuals acumulades fins l'últim dia disponible
2020 4,8 16,7 26,4 19,7 9,5 23,1 32,7 27,9 20 65 97 990 1.018 1.034   7,1 96,0 281,0
Últims 30 dies disponibles
06-10-2020 15,4     23,7     27,3 11,9 33 41 51 1.018 1.019 1.020 S 8,3 22,0 0,0
05-10-2020 16,2     21,6     24,5 8,3 24 40 53 1.011 1.015 1.019 SSO 8,8 27,0 0,0
04-10-2020 14,2     20,8     24,0 9,8 31 39 55 1.006 1.008 1.011 OSO 9,8 38,0 0,0
03-10-2020 13,5     18,3     23,9 10,4 31 37 51 1.002 1.007 1.010 O 8,9 34,0 0,0
02-10-2020 15,1     19,7     25,8 10,7 37 53 66 990 997 1.005 OSO 12,3 51,0 1,2
01-10-2020 18,0     26,4     32,3 14,3 20 33 72 1.005 1.006 1.009 OSO 7,2 31,0 0,0
30-09-2020 17,5     21,6     23,6 6,1 64 72 78 1.013 1.014 1.017 SSO 8,0 26,0 0,0
29-09-2020 17,0     21,0     23,9 6,9 50 59 66 1.017 1.018 1.018 SSO 6,7 24,0 0,0
28-09-2020 15,8     21,9     23,6 7,8 26 42 65 1.014 1.016 1.017 SSE 8,0 28,0 0,0
27-09-2020 19,6     20,4     23,6 4,0 48 51 52 1.013 1.013 1.014 O 2,1 38,0 0,0
26-09-2020 17,6     22,2     26,3 8,7 23 28 35 1.013 1.015 1.018 NO 8,7 26,0 0,0
25-09-2020 21,1     24,0     25,9 4,8 24 31 42 1.013 1.015 1.016 SSE 10,4 34,0 0,0
24-09-2020 22,5     26,2     30,1 7,6 35 46 55 1.011 1.012 1.013 SO 6,9 37,0 0,0
23-09-2020 21,9     27,7     32,2 10,3 31 44 70 1.010 1.011 1.012 O 5,6 30,0 0,0
22-09-2020 20,9     24,5     27,2 6,3 50 64 75 1.012 1.013 1.015 SSO 8,0 26,0 0,0
21-09-2020 21,7     26,0     28,2 6,5 40 58 72 1.014 1.015 1.016 SSE 10,3 30,0 0,0
20-09-2020 21,0     26,8     31,3 10,3 28 46 67 1.013 1.015 1.016 SO 5,5 27,0 0,0
19-09-2020 19,9     24,7     29,4 9,5 34 58 82 1.014 1.014 1.014 OSO 6,4 32,0 0,0
18-09-2020 20,4     22,6     25,8 5,4 65 73 83 1.014 1.015 1.017 SSE 6,6 28,0 4,6
17-09-2020 23,9     25,7     27,7 3,8 59 70 78 1.015 1.015 1.016 S 5,8 18,0 0,0
16-09-2020 22,4     25,4     28,6 6,2 63 72 80 1.017 1.018 1.019 SSE 7,9 22,0 0,0
15-09-2020 23,4     26,3     29,9 6,5 48 61 72 1.020 1.020 1.021 S 7,7 31,0 0,0
14-09-2020 22,0     26,2     27,4 5,4 45 63 75 1.021 1.022 1.024 E 7,7 23,0 0,0
13-09-2020 22,0     26,3     30,0 8,0 55 62 68 1.022 1.023 1.023 E 3,9 16,0 0,0
12-09-2020 22,6     23,0     27,5 4,9 61 66 76 1.016 1.016 1.018 NO 5,5 24,0 0,0
11-09-2020 20,9     24,2     28,4 7,5 53 60 65 1.013 1.014 1.015 SSO 7,4 30,0 0,0
10-09-2020 20,7     24,3     27,2 6,5 44 58 74 1.017 1.018 1.019 SSE 6,0 23,0 0,0
09-09-2020 20,4     23,0     25,7 5,3 55 63 71 1.020 1.020 1.021 SE 6,8 22,0 0,0
08-09-2020 18,7     22,9     25,7 7,0 40 55 76 1.022 1.022 1.022 SSO 8,0 22,0 18,7
07-09-2020 22,3     23,1     25,1 2,8 47 60 74 1.016 1.018 1.021 E 15,4 42,0 0,0
Últims 13 mesos disponibles
09/2020 15,8 20,9 23,9 24,3 23,6 27,3 32,2 16,4 28 58 73 1.011 1.017 1.024 SSO 7,5 42,0 23,3
07/2020 21,2 24,0 26,1 26,3 26,1 28,6 32,2 11,0 47 69 77 1.007 1.016 1.020 ESE 8,4 37,0 13,9
06/2020 16,4 20,6 23,8 22,7 20,5 26,4 30,3 13,9 29 66 84 1.005 1.014 1.020 SSE 7,8 43,0 24,3
05/2020 14,4 18,4 21,0 21,4 20,3 24,8 32,3 17,9 41 64 79 1.005 1.017 1.028 SE 6,9 49,0 16,6
04/2020 10,7 14,2 18,8 16,8 16,0 20,0 27,1 16,4 38 71 89 1.005 1.016 1.026 S 5,9 45,0 42,5
03/2020 7,9 12,2 17,3 14,9 12,8 18,2 25,6 17,7 37 65 91 1.007 1.017 1.027 ESE 8,7 86,0 52,6
02/2020 8,8 11,9 15,2 15,4 15,1 20,3 26,4 17,6 41 66 86 1.013 1.025 1.032 SSO 4,5 96,0 0,9
01/2020 4,8 9,1 15,8 12,3 9,5 16,6 23,3 18,5 48 68 87 1.015 1.024 1.032 SO 5,8 78,0 103,9
12/2019 7,9 12,1 18,7 14,9 14,1 18,6 25,1 17,2 45 63 88 1.001 1.018 1.032 OSO 6,9 82,0 72,1
11/2019 6,9 13,3 21,3 16,5 16,7 20,5 29,6 22,7 35 50 73 998 1.010 1.018 OSO 8,7 55,0 4,0
10/2019 12,9 17,7 21,3 21,0 17,6 25,2 34,3 21,4 37 63 78 1.007 1.017 1.022 SO 5,3 37,0 25,2
09/2019 16,6 21,4 24,3 24,2 21,5 27,2 34,0 17,4 37 68 79 1.011 1.018 1.025 SSE 7,9 71,0 91,8
08/2019 19,9 24,6 27,3 27,1 26,6 30,0 41,3 21,4 43 69 83 1.011 1.015 1.020 ESE 8,1 40,0 2,4
Tots els anys disponibles
2019 3,9 15,9 27,3 19,1 12,8 22,8 41,3 37,4 28 61 96 994 1.017 1.033 S 7,1 82,0 284,7
2018 4,4 16,2 26,9 19,4 9,9 22,8 36,1 31,7 34 62 95 969 1.016 1.035 OSO 0,8 71,0 751,8
2017 2,7 15,9 26,7 19,3 9,8 22,7 35,6 32,9 30 61 87 997 1.019 1.035 80,0 265,5
2016 4,9 16,5 26,7 19,6 11,4 22,8 34,5 29,6 26 65 95 994 1.017 1.037 78,0 409,3
2015 3,6 16,1 26,9 19,8 8,9 23,4 41,7 38,1 28 68 93 996 1.019 1.042 97,0 217,9
2014 3,4 16,5 26,4 20,6 11,5 24,6 42,4 39,0 28 68 94 993 1.015 1.035 64,0 139,5
2013 4,6 15,8 25,4 19,8 10,9 23,7 37,4 32,8 26 66 93 991 1.015 1.037 67,0 178,8
2012 1,7 13,3 26,4 17,3 10,6 21,4 39,1 37,4 23 65 93 1.003 1.018 1.032 70,0 138,6
2011 2,2 15,8 25,1 19,4 9,3 23,1 38,2 36,0 34 71 92 58,0 227,7
Temperatura (°C)
Humitat relativa (%)
Velocitat del vent i ràfega màxima (km/h)
Direcció del vent (°)
Pressió (hPa)
Precipitació (mm)
Nota sobre les dades: s'avisa a l'usuari de la provisionalitat i no oficialitat d'aquestes dades
Logo AVAMET blanc
Web allotjada a Sollutia
Llicència de Creative CommonsLa web d'AVAMET i els seus continguts estan subjectes a una llicència de
Reconeixement - No Comercial - Compartir igual
Avís legal - Política de privacitat - Política de cookies
PRÒXIMES ESTACIONS: El Fondó dels Frares (Estació pròpia d'AVAMET nº34); NOVES ESTACIONS: Agres - Foia Ampla de Mariola (Socis), Beniarjó (Inforatge), Sueca - Mareny de Barraquetes (Inforatge), La Vilavella - Centre (Ajuntament Soci), Alfondeguilla (Soci), Santa Magdalena de Polpís (Soci), Benafigos (Ajuntament/Socis), Carlet - Ajuntament (Inforatge), Montroi (Inforatge), Bronchales (Limítrofe-Terol/Aj. Soci) - - -